Atwood, Tennessee
Current Conditions -  °F | °C
As of 5:53 AM on Thursday 29 Jan 2015 (Local Time) from KMKL Reporting Station
Few Clouds Few Clouds  
Wind Chill: 12°   Ceiling: Unl
Heat Index: 12°   Visibility: 10mi
Dew Point:   Wind: 15mph
Humidity: 53%   Direction: 210°SSW
Pressure: 30"   Gusts: NA
Location:  35.97°N, 88.68°W
Report Text: KMKL 291153Z AUTO 21013KT 10SM FEW120 12/03 A3000 RMK AO2 SLP159 T01220028 10128 20100 55009
Loading
Personal Weather Stations






























Interactive Weather Map New forecast layout! Learn more

10-Day Weather Forecast

Advertisements
Track Severe Weather on mobile